Flight Track Log - Related Links

Times and Time Zones

All times are in EDT time to prevent confusion due to time zone crossing. See the UAL4236 flight status page for this flight to view local times or setup timezone preferences in your user account.

Time Position Orientation Groundspeed Altitude Reporting Facility
EDT Latitude Longitude Course Direction KTS MPH feet Rate Location/Type
Sat 10:10:35 AM 29.9639 -95.3433 276° West 149 171 600  Level Houston Center
Sat 10:11:36 AM 29.9289 -95.3764 219° Southwest 200 230 2,400 1,604 Climbing Houston Center
Sat 10:12:16 AM 29.9114 -95.4069 237° Southwest 211 243 3,300 1,672 Climbing Houston Center
Sat 10:12:37 AM 29.8889 -95.4417 233° Southwest 248 285 4,100 2,262 Climbing Houston Center
Sat 10:13:17 AM 29.8650 -95.4792 234° Southwest 232 267 5,600 2,262 Climbing Houston Center
Sat 10:13:38 AM 29.8483 -95.5042 232° Southwest 252 290 6,400 2,226 Climbing Houston Center
Sat 10:14:00 AM 30.0312 -95.7804 277° West  Level FlightAware Approximate
Sat 10:14:19 AM 29.8594 -95.5522 285° West 259 298 7,900  Level Houston Center
Sat 10:14:40 AM 29.8781 -95.5778 310° West 267 307 8,900 2,226 Climbing Houston Center
Sat 10:15:00 AM 30.0411 -95.8929 276° West  Level FlightAware Approximate
Sat 10:15:21 AM 29.8986 -95.6244 297° West 263 303 10,200  Level Houston Center
Sat 10:16:22 AM 29.9311 -95.7092 294° West 282 325 10,800 829 Climbing Houston Center
Sat 10:17:24 AM 29.9694 -95.8067 294° West 326 375 11,900 1,161 Climbing Houston Center
Sat 10:18:26 AM 30.0078 -95.9042 294° West 335 386 13,200 1,366 Climbing Houston Center
Sat 10:19:27 AM 30.0514 -96.0250 293° West 341 392 14,700 1,232 Climbing Houston Center
Sat 10:21:31 AM 30.0922 -96.2344 283° West 347 399 17,000 1,103 Climbing Houston Center
Sat 10:22:32 AM 30.1150 -96.3450 283° West 354 407 18,100 1,122 Climbing Houston Center
Sat 10:23:34 AM 30.1406 -96.4783 283° West 364 419 19,300 1,065 Climbing Houston Center
Sat 10:24:36 AM 30.1639 -96.5958 283° West 372 428 20,300 968 Climbing Houston Center
Sat 10:25:38 AM 30.1883 -96.7158 283° West 377 434 21,300 1,024 Climbing Houston Center
Sat 10:26:39 AM 30.2108 -96.8392 282° West 385 443 22,400 1,171 Climbing Houston Center
Sat 10:27:41 AM 30.2350 -96.9600 283° West 382 440 23,700 1,500 Climbing Houston Center
Sat 10:28:43 AM 30.2575 -97.0758 283° West 369 425 25,500 1,452 Climbing Houston Center
Sat 10:29:45 AM 30.2789 -97.1894 282° West 359 413 26,700 1,220 Climbing Houston Center
Sat 10:30:46 AM 30.3000 -97.3003 282° West 351 404 28,000 1,268 Climbing Houston Center
Sat 10:31:48 AM 30.3211 -97.4094 283° West 344 396 29,300 1,210 Climbing Houston Center
Sat 10:32:50 AM 30.3419 -97.5194 282° West 346 398 30,500 1,355 Climbing Houston Center
Sat 10:33:52 AM 30.3650 -97.6461 282° West 342 394 32,100 1,366 Climbing Houston Center
Sat 10:34:53 AM 30.3867 -97.7544 283° West 342 394 33,300 927 Climbing Houston Center
Sat 10:35:55 AM 30.4067 -97.8650 282° West 346 398 34,000 339 Climbing Houston Center
Sat 10:36:57 AM 30.4281 -97.9819 282° West 364 419 34,000  Level Houston Center
Sat 10:37:59 AM 30.4500 -98.1067 282° West 385 443 34,000  Level Houston Center
Sat 10:39:01 AM 30.4758 -98.2392 283° West 410 472 34,000  Level Houston Center
Sat 10:40:02 AM 30.4994 -98.3708 282° West 413 475 34,000  Level Houston Center
Sat 10:41:04 AM 30.5242 -98.5033 282° West 415 478 34,000  Level Houston Center
Sat 10:42:06 AM 30.5472 -98.6342 282° West 412 474 34,000  Level Houston Center
Sat 10:43:08 AM 30.5708 -98.7658 282° West 412 474 34,000  Level Houston Center
Sat 10:44:10 AM 30.5992 -98.9181 282° West 409 471 34,000  Level Houston Center
Sat 10:45:11 AM 30.6225 -99.0469 282° West 405 466 34,000 -146 Level Houston Center
Sat 10:46:13 AM 30.6428 -99.1642 281° West 402 463 33,700 -435 Descending Houston Center
Sat 10:47:15 AM 30.6644 -99.2892 281° West 399 459 33,100 -581 Descending Houston Center
Sat 10:48:17 AM 30.6869 -99.4175 282° West 405 466 32,500 -537 Descending Houston Center
Sat 10:49:18 AM 30.7131 -99.5722 281° West 409 471 32,000 -244 Descending Houston Center
Sat 10:50:20 AM 30.7356 -99.7017 281° West 413 475 32,000  Level Houston Center
Sat 10:51:22 AM 30.7556 -99.8278 280° West 392 451 32,000  Level Houston Center
Sat 10:52:24 AM 30.7783 -99.9558 282° West 404 465 32,000  Level Houston Center
Sat 10:53:27 AM 30.7992 -100.0839 281° West 402 463 32,000  Level Houston Center
Sat 10:54:28 AM 30.8261 -100.2367 282° West 389 448 32,000  Level Houston Center
Sat 10:55:29 AM 30.8472 -100.3650 281° West 396 456 32,000  Level Houston Center
Sat 10:56:31 AM 30.8686 -100.4936 281° West 397 457 32,000  Level Houston Center
Sat 10:57:33 AM 30.8889 -100.6250 280° West 412 474 32,000  Level Houston Center
Sat 10:58:35 AM 30.9103 -100.7522 281° West 408 470 32,000  Level Houston Center
Sat 10:59:37 AM 30.9308 -100.8825 280° West 408 470 32,000  Level Houston Center
Sat 11:00:38 AM 30.9556 -101.0344 281° West 407 468 32,000  Level Houston Center
Sat 11:01:40 AM 30.9756 -101.1614 280° West 402 463 32,000  Level Houston Center
Sat 11:02:42 AM 30.9958 -101.2889 281° West 402 463 32,000  Level Houston Center
Sat 11:03:44 AM 31.0147 -101.4131 280° West 393 452 32,000  Level Houston Center
Sat 11:04:46 AM 31.0342 -101.5422 280° West 398 458 32,000  Level Houston Center
Sat 11:05:47 AM 31.0550 -101.6719 281° West 403 464 32,000  Level Houston Center
Sat 11:06:49 AM 31.0742 -101.8003 280° West 404 465 32,000  Level Houston Center
Sat 11:07:51 AM 31.0983 -101.9550 280° West 407 468 32,000  Level Houston Center
Sat 11:08:53 AM 31.1183 -102.0850 280° West 404 465 32,000  Level Houston Center
Sat 11:09:55 AM 31.1383 -102.2153 280° West 413 475 32,000  Level Houston Center
Sat 11:10:57 AM 31.1558 -102.3478 279° West 413 475 32,000  Level Houston Center
Sat 11:11:58 AM 31.1756 -102.4808 280° West 419 482 32,000  Level Houston Center
Sat 11:13:00 AM 31.1958 -102.6108 280° West 407 468 32,000  Level Houston Center
Sat 11:14:02 AM 31.2144 -102.7383 280° West 401 461 32,000  Level Houston Center
Sat 11:15:04 AM 31.2353 -102.8692 281° West 406 467 32,000  Level Houston Center
Sat 11:16:06 AM 31.2536 -102.9992 279° West 406 467 32,000  Level Houston Center
Sat 11:17:07 AM 31.2764 -103.1553 280° West 406 467 32,000  Level Houston Center
Sat 11:18:09 AM 31.2958 -103.2847 280° West 405 466 32,000 -44 Level Houston Center
Sat 11:19:23 AM 31.3144 -103.4394 278° West 403 464 31,900 -397 Descending Albuquerque Center
Sat 11:20:25 AM 31.3311 -103.5689 279° West 403 464 31,100 -774 Descending Albuquerque Center
Sat 11:21:27 AM 31.3494 -103.6972 280° West 400 460 30,300 -532 Descending Albuquerque Center
Sat 11:22:29 AM 31.3675 -103.8292 279° West 399 459 30,000 -145 Descending Albuquerque Center
Sat 11:23:31 AM 31.3858 -103.9594 279° West 404 465 30,000  Level Albuquerque Center
Sat 11:24:33 AM 31.4047 -104.0922 279° West 412 474 30,000  Level Albuquerque Center
Sat 11:25:34 AM 31.4267 -104.2511 279° West 415 478 30,000  Level Albuquerque Center
Sat 11:26:36 AM 31.4433 -104.3839 278° West 414 476 30,000  Level Albuquerque Center
Sat 11:27:38 AM 31.4592 -104.5161 278° West 413 475 30,000 -48 Level Albuquerque Center
Sat 11:28:40 AM 31.4736 -104.6489 277° West 413 475 29,900 -339 Descending Albuquerque Center
Sat 11:29:42 AM 31.4881 -104.7861 277° West 420 483 29,300 -1,210 Descending Albuquerque Center
Sat 11:30:44 AM 31.5014 -104.9192 277° West 421 484 27,400 -2,098 Descending Albuquerque Center
Sat 11:31:45 AM 31.5172 -105.0786 277° West 417 480 25,000 -2,195 Descending Albuquerque Center
Sat 11:32:47 AM 31.5308 -105.2108 277° West 415 478 22,900 -2,032 Descending Albuquerque Center
Sat 11:33:49 AM 31.5428 -105.3392 276° West 407 468 20,800 -2,095 Descending Albuquerque Center
Sat 11:34:53 AM 31.5544 -105.4914 275° West 388 447 18,500 -2,118 Descending Albuquerque Center
Sat 11:35:48 AM 31.5653 -105.6058 276° West 385 443 16,600 -2,039 Descending Albuquerque Center
Sat 11:36:36 AM 31.5767 -105.7003 278° West 378 435 15,000 -2,091 Descending Albuquerque Center
Sat 11:36:54 AM 31.5806 -105.7342 278° West 372 428 14,300 -2,082 Descending Albuquerque Center
Sat 11:37:25 AM 31.5883 -105.7972 278° West 360 414 13,300 -1,935 Descending Albuquerque Center
Sat 11:37:56 AM 31.6081 -105.8439 296° West 355 409 12,300 -1,967 Descending Albuquerque Center
Sat 11:38:26 AM 31.6339 -105.8931 302° West 324 373 11,300 -1,548 Descending Albuquerque Center
Sat 11:38:58 AM 31.6528 -105.9322 300° West 318 366 10,700 -1,100 Descending Albuquerque Center
Sat 11:39:26 AM 31.6722 -105.9731 299° West 266 306 10,200 -1,161 Descending Albuquerque Center
Sat 11:40:00 AM 31.6903 -106.0050 304° West 265 305 9,500 -1,433 Descending Albuquerque Center
Sat 11:40:33 AM 31.7103 -106.0511 297° West 244 281 8,600 -1,377 Descending Albuquerque Center
Sat 11:41:01 AM 31.7242 -106.0761 303° West 252 290 8,100 -1,111 Descending Albuquerque Center
Sat 11:41:27 AM 31.7408 -106.1133 298° West 238 274 7,600 -1,154 Descending Albuquerque Center

Login

Don't have an account? Register now (free) for customized features, flight alerts, and more!